Detall de PIREP

Printer-friendly versionPDF version

[2015/03/22 08:19:00]
Flight IATA:CT0001
Pilot Number:031
Company ICAO:CAT
Aircraft Type:AT72/F
PAX:40
Departing Airport: LELC
Destination Airport: LERS
Alternate Airport:LEPA
Online: VATSIM
Route:ALT A34 CRETA G7 SENIA
Flight Level:F210
No Slew and time accel
No pause
Crash detect
Detect pilot in Cockpit between each 30 and 45 minutes
08:19 Zero fuel Weight: 34736 Lbs, Fuel Weight: 4032 Lbs
08:19 VATSIM:LELC 210800Z 00000KT 9999 SCT018 13/12 Q1007 NOSIG
08:19 VATSIM:LERS 210830Z 05013KT 4000 RA BR SCT013 OVC024 12/12 Q1008
08:20 Parking Brakes off
08:23 Take-off
08:23 Take off Weight: 38728 Lbs
08:23 Wind: 270º @ 002 Knots Heading: 044º
08:23 POS N37º 46´ 32´´ W000º 48´ 41´´
08:23 Gear Up: 140 Knots
08:23 Flaps:1 at 140 Knots
08:23 Flaps:0 at 178 Knots
08:30 TOC
08:30 Fuel Weight: 3665 Lb
08:38 Wind:000º@000 Knots Heading: 003º Ground Speed: 288 Knots Altitude 20813 ft
08:53 Wind:000º@000 Knots Heading: 016º Ground Speed: 310 Knots Altitude 20793 ft
09:02 TOD
09:02 Fuel Weight: 2655 Lb
09:08 Wind:000º@000 Knots Heading: 111º Ground Speed: 239 Knots Altitude 12450 ft
09:12 Flaps:1 at 167 Knots
09:13 Flaps:2 at 163 Knots
09:13 Flaps:1 at 162 Knots
09:23 Wind:000º@000 Knots Heading: 065º Ground Speed: 162 Knots Altitude 2365 ft
09:26 Gear Down: 126 Knots
09:26 Flaps:2 at 127 Knots
09:27 TouchDown:Rate -645 ft/min Speed: 82 Knots
09:27 VATSIM:LERS 211000Z 09015G27KT 030V140 6000 -RA SCT007 BKN040 14/13 Q1009
09:27 Land
09:27 Wind:000º@000 Knots
09:27 Heading: 113º
09:27 Flight Duration: 01:04
09:27 Landing Weight: 37180 Lbs
09:27 POS N41º 08´ 54´´ E001º 09´ 45´´
09:28 Parking brakes on
09:28 Block to Block Duration: 01:08
09:28 Final Fuel: 2440 Lbls
09:28 Spent Fuel: 1591 Lbls
09:28 Flight Length: 263 NM
09:28 TOD Land Length: 75 NM

Exportar CSV

Powered by Drupal - Modified by Danger4k